sensor_id;sensor_type;location;lat;lon;timestamp;P1;durP1;ratioP1;P2;durP2;ratioP2
21705;SDS011;11014;53.076;18.208;2023-03-11T00:00:25;29.73;;;16.42;;
21705;SDS011;11014;53.076;18.208;2023-03-11T00:03:46;31.23;;;16.58;;
21705;SDS011;11014;53.076;18.208;2023-03-11T00:06:16;33.53;;;18.10;;
21705;SDS011;11014;53.076;18.208;2023-03-11T00:08:45;37.38;;;18.02;;
21705;SDS011;11014;53.076;18.208;2023-03-11T00:14:08;39.10;;;19.33;;
21705;SDS011;11014;53.076;18.208;2023-03-11T00:16:38;37.38;;;18.50;;
21705;SDS011;11014;53.076;18.208;2023-03-11T00:19:07;39.50;;;18.75;;
21705;SDS011;11014;53.076;18.208;2023-03-11T00:21:38;40.70;;;19.40;;
21705;SDS011;11014;53.076;18.208;2023-03-11T00:24:06;40.67;;;20.55;;
21705;SDS011;11014;53.076;18.208;2023-03-11T00:26:35;197.57;;;101.15;;
21705;SDS011;11014;53.076;18.208;2023-03-11T00:29:04;43.65;;;24.00;;
21705;SDS011;11014;53.076;18.208;2023-03-11T00:31:48;40.70;;;21.13;;
21705;SDS011;11014;53.076;18.208;2023-03-11T00:34:17;59.75;;;30.92;;
21705;SDS011;11014;53.076;18.208;2023-03-11T00:36:46;55.63;;;29.17;;
21705;SDS011;11014;53.076;18.208;2023-03-11T00:39:18;37.17;;;18.33;;
21705;SDS011;11014;53.076;18.208;2023-03-11T00:41:46;37.35;;;17.67;;
21705;SDS011;11014;53.076;18.208;2023-03-11T00:44:17;34.35;;;17.77;;
21705;SDS011;11014;53.076;18.208;2023-03-11T00:46:45;34.30;;;17.08;;
21705;SDS011;11014;53.076;18.208;2023-03-11T00:49:17;31.33;;;16.63;;
21705;SDS011;11014;53.076;18.208;2023-03-11T00:51:47;29.60;;;16.10;;
21705;SDS011;11014;53.076;18.208;2023-03-11T00:54:17;34.45;;;17.30;;
21705;SDS011;11014;53.076;18.208;2023-03-11T00:56:47;32.00;;;16.67;;
21705;SDS011;11014;53.076;18.208;2023-03-11T00:59:18;29.40;;;16.25;;
21705;SDS011;11014;53.076;18.208;2023-03-11T01:01:46;59.15;;;32.15;;
21705;SDS011;11014;53.076;18.208;2023-03-11T01:04:16;39.38;;;19.95;;
21705;SDS011;11014;53.076;18.208;2023-03-11T01:06:46;36.72;;;19.23;;
21705;SDS011;11014;53.076;18.208;2023-03-11T01:09:16;69.97;;;37.10;;
21705;SDS011;11014;53.076;18.208;2023-03-11T01:11:44;34.90;;;18.85;;
21705;SDS011;11014;53.076;18.208;2023-03-11T01:14:14;135.32;;;58.30;;
21705;SDS011;11014;53.076;18.208;2023-03-11T01:16:47;57.97;;;27.58;;
21705;SDS011;11014;53.076;18.208;2023-03-11T01:19:16;49.75;;;24.98;;
21705;SDS011;11014;53.076;18.208;2023-03-11T01:21:44;54.80;;;26.80;;
21705;SDS011;11014;53.076;18.208;2023-03-11T01:24:14;31.35;;;16.73;;
21705;SDS011;11014;53.076;18.208;2023-03-11T01:26:43;31.88;;;16.98;;
21705;SDS011;11014;53.076;18.208;2023-03-11T01:29:12;27.23;;;14.68;;
21705;SDS011;11014;53.076;18.208;2023-03-11T01:31:45;32.03;;;16.02;;
21705;SDS011;11014;53.076;18.208;2023-03-11T01:34:15;32.63;;;15.70;;
21705;SDS011;11014;53.076;18.208;2023-03-11T01:36:44;34.45;;;16.73;;
21705;SDS011;11014;53.076;18.208;2023-03-11T01:39:13;94.35;;;34.05;;
21705;SDS011;11014;53.076;18.208;2023-03-11T01:41:41;43.95;;;22.30;;
21705;SDS011;11014;53.076;18.208;2023-03-11T01:44:12;40.65;;;21.15;;
21705;SDS011;11014;53.076;18.208;2023-03-11T01:49:23;71.32;;;38.53;;
21705;SDS011;11014;53.076;18.208;2023-03-11T01:51:53;48.75;;;27.88;;
21705;SDS011;11014;53.076;18.208;2023-03-11T01:54:32;61.92;;;31.75;;
21705;SDS011;11014;53.076;18.208;2023-03-11T01:57:11;29.95;;;15.52;;
21705;SDS011;11014;53.076;18.208;2023-03-11T01:59:44;28.73;;;14.27;;
21705;SDS011;11014;53.076;18.208;2023-03-11T02:02:19;28.92;;;15.77;;
21705;SDS011;11014;53.076;18.208;2023-03-11T02:04:54;29.77;;;17.15;;
21705;SDS011;11014;53.076;18.208;2023-03-11T02:07:24;28.35;;;16.88;;
21705;SDS011;11014;53.076;18.208;2023-03-11T02:09:54;29.67;;;16.73;;
21705;SDS011;11014;53.076;18.208;2023-03-11T02:12:24;22.33;;;13.32;;
21705;SDS011;11014;53.076;18.208;2023-03-11T02:14:57;28.42;;;14.52;;
21705;SDS011;11014;53.076;18.208;2023-03-11T02:17:27;26.08;;;14.43;;
21705;SDS011;11014;53.076;18.208;2023-03-11T02:23:12;27.40;;;14.38;;
21705;SDS011;11014;53.076;18.208;2023-03-11T02:25:56;24.60;;;12.50;;
21705;SDS011;11014;53.076;18.208;2023-03-11T02:28:32;23.70;;;12.68;;
21705;SDS011;11014;53.076;18.208;2023-03-11T02:33:35;23.10;;;11.38;;
21705;SDS011;11014;53.076;18.208;2023-03-11T02:36:05;20.27;;;11.10;;
21705;SDS011;11014;53.076;18.208;2023-03-11T02:38:34;20.58;;;11.05;;
21705;SDS011;11014;53.076;18.208;2023-03-11T02:41:04;22.00;;;11.23;;
21705;SDS011;11014;53.076;18.208;2023-03-11T02:43:39;19.90;;;11.48;;
21705;SDS011;11014;53.076;18.208;2023-03-11T02:46:14;19.05;;;11.32;;
21705;SDS011;11014;53.076;18.208;2023-03-11T02:48:47;22.23;;;11.98;;
21705;SDS011;11014;53.076;18.208;2023-03-11T02:51:20;23.65;;;12.27;;
21705;SDS011;11014;53.076;18.208;2023-03-11T02:53:50;26.08;;;13.77;;
21705;SDS011;11014;53.076;18.208;2023-03-11T02:56:24;23.55;;;12.93;;
21705;SDS011;11014;53.076;18.208;2023-03-11T02:58:53;23.88;;;13.63;;
21705;SDS011;11014;53.076;18.208;2023-03-11T03:01:23;19.90;;;11.95;;
21705;SDS011;11014;53.076;18.208;2023-03-11T03:03:51;21.52;;;12.20;;
21705;SDS011;11014;53.076;18.208;2023-03-11T03:06:21;22.70;;;12.57;;
21705;SDS011;11014;53.076;18.208;2023-03-11T03:08:51;28.13;;;14.80;;
21705;SDS011;11014;53.076;18.208;2023-03-11T03:11:21;24.48;;;13.90;;
21705;SDS011;11014;53.076;18.208;2023-03-11T03:13:50;21.67;;;13.00;;
21705;SDS011;11014;53.076;18.208;2023-03-11T03:16:19;25.40;;;14.13;;
21705;SDS011;11014;53.076;18.208;2023-03-11T03:18:48;22.55;;;12.82;;
21705;SDS011;11014;53.076;18.208;2023-03-11T03:24:12;41.75;;;25.77;;
21705;SDS011;11014;53.076;18.208;2023-03-11T03:26:41;27.95;;;15.43;;
21705;SDS011;11014;53.076;18.208;2023-03-11T03:29:11;87.47;;;42.72;;
21705;SDS011;11014;53.076;18.208;2023-03-11T03:31:40;99.57;;;42.88;;
21705;SDS011;11014;53.076;18.208;2023-03-11T03:34:09;80.10;;;35.55;;
21705;SDS011;11014;53.076;18.208;2023-03-11T03:36:38;67.00;;;35.78;;
21705;SDS011;11014;53.076;18.208;2023-03-11T03:39:06;35.67;;;19.75;;
21705;SDS011;11014;53.076;18.208;2023-03-11T03:41:37;34.17;;;19.02;;
21705;SDS011;11014;53.076;18.208;2023-03-11T03:44:08;31.38;;;17.65;;
21705;SDS011;11014;53.076;18.208;2023-03-11T03:46:37;31.85;;;16.48;;
21705;SDS011;11014;53.076;18.208;2023-03-11T03:49:08;33.63;;;18.70;;
21705;SDS011;11014;53.076;18.208;2023-03-11T03:51:39;33.15;;;18.92;;
21705;SDS011;11014;53.076;18.208;2023-03-11T03:54:18;68.82;;;36.97;;
21705;SDS011;11014;53.076;18.208;2023-03-11T03:56:49;16.73;;;10.25;;
21705;SDS011;11014;53.076;18.208;2023-03-11T03:59:20;49.22;;;24.17;;
21705;SDS011;11014;53.076;18.208;2023-03-11T04:01:55;34.17;;;18.70;;
21705;SDS011;11014;53.076;18.208;2023-03-11T04:04:25;24.75;;;16.17;;
21705;SDS011;11014;53.076;18.208;2023-03-11T04:07:05;16.67;;;10.05;;
21705;SDS011;11014;53.076;18.208;2023-03-11T04:09:41;22.45;;;13.45;;
21705;SDS011;11014;53.076;18.208;2023-03-11T04:12:22;19.35;;;13.18;;
21705;SDS011;11014;53.076;18.208;2023-03-11T04:15:20;18.23;;;13.40;;
21705;SDS011;11014;53.076;18.208;2023-03-11T04:17:52;14.43;;;9.35;;
21705;SDS011;11014;53.076;18.208;2023-03-11T04:20:27;16.33;;;9.65;;
21705;SDS011;11014;53.076;18.208;2023-03-11T04:22:57;17.75;;;11.23;;
21705;SDS011;11014;53.076;18.208;2023-03-11T04:25:26;11.90;;;8.05;;
21705;SDS011;11014;53.076;18.208;2023-03-11T04:28:39;21.80;;;11.18;;
21705;SDS011;11014;53.076;18.208;2023-03-11T04:31:08;12.70;;;8.32;;
21705;SDS011;11014;53.076;18.208;2023-03-11T04:33:40;12.15;;;8.18;;
21705;SDS011;11014;53.076;18.208;2023-03-11T04:36:12;19.15;;;10.57;;
21705;SDS011;11014;53.076;18.208;2023-03-11T04:39:05;11.05;;;8.00;;
21705;SDS011;11014;53.076;18.208;2023-03-11T04:41:42;18.45;;;15.60;;
21705;SDS011;11014;53.076;18.208;2023-03-11T04:44:48;14.10;;;11.25;;
21705;SDS011;11014;53.076;18.208;2023-03-11T04:47:38;13.43;;;9.10;;
21705;SDS011;11014;53.076;18.208;2023-03-11T04:50:53;8.38;;;6.43;;
21705;SDS011;11014;53.076;18.208;2023-03-11T04:53:49;11.60;;;8.18;;
21705;SDS011;11014;53.076;18.208;2023-03-11T04:56:30;7.90;;;5.57;;
21705;SDS011;11014;53.076;18.208;2023-03-11T04:58:59;33.40;;;20.85;;
21705;SDS011;11014;53.076;18.208;2023-03-11T05:05:30;15.82;;;13.13;;
21705;SDS011;11014;53.076;18.208;2023-03-11T05:08:12;11.00;;;9.10;;
21705;SDS011;11014;53.076;18.208;2023-03-11T05:16:01;70.68;;;34.13;;
21705;SDS011;11014;53.076;18.208;2023-03-11T05:19:00;25.38;;;15.75;;
21705;SDS011;11014;53.076;18.208;2023-03-11T05:22:07;21.35;;;13.75;;
21705;SDS011;11014;53.076;18.208;2023-03-11T05:24:37;85.95;;;44.47;;
21705;SDS011;11014;53.076;18.208;2023-03-11T05:27:06;28.75;;;16.65;;
21705;SDS011;11014;53.076;18.208;2023-03-11T05:29:37;10.93;;;7.65;;
21705;SDS011;11014;53.076;18.208;2023-03-11T05:32:12;78.57;;;40.72;;
21705;SDS011;11014;53.076;18.208;2023-03-11T05:35:10;25.50;;;12.98;;
21705;SDS011;11014;53.076;18.208;2023-03-11T05:37:53;12.82;;;8.38;;
21705;SDS011;11014;53.076;18.208;2023-03-11T05:40:27;27.90;;;17.63;;
21705;SDS011;11014;53.076;18.208;2023-03-11T05:43:31;66.35;;;33.13;;
21705;SDS011;11014;53.076;18.208;2023-03-11T05:46:03;46.60;;;24.00;;
21705;SDS011;11014;53.076;18.208;2023-03-11T05:48:42;21.90;;;13.82;;
21705;SDS011;11014;53.076;18.208;2023-03-11T05:51:32;27.10;;;15.38;;
21705;SDS011;11014;53.076;18.208;2023-03-11T05:54:26;11.73;;;7.47;;
21705;SDS011;11014;53.076;18.208;2023-03-11T05:57:40;46.67;;;27.55;;
21705;SDS011;11014;53.076;18.208;2023-03-11T06:00:08;34.47;;;22.40;;
21705;SDS011;11014;53.076;18.208;2023-03-11T06:03:16;28.50;;;17.85;;
21705;SDS011;11014;53.076;18.208;2023-03-11T06:05:49;19.85;;;13.30;;
21705;SDS011;11014;53.076;18.208;2023-03-11T06:08:43;26.02;;;14.95;;
21705;SDS011;11014;53.076;18.208;2023-03-11T06:11:21;26.70;;;15.82;;
21705;SDS011;11014;53.076;18.208;2023-03-11T06:14:31;31.63;;;17.73;;
21705;SDS011;11014;53.076;18.208;2023-03-11T06:17:27;25.92;;;15.65;;
21705;SDS011;11014;53.076;18.208;2023-03-11T06:19:59;38.58;;;25.17;;
21705;SDS011;11014;53.076;18.208;2023-03-11T06:25:07;24.20;;;15.93;;
21705;SDS011;11014;53.076;18.208;2023-03-11T06:27:40;19.98;;;13.75;;
21705;SDS011;11014;53.076;18.208;2023-03-11T06:30:09;36.30;;;21.40;;
21705;SDS011;11014;53.076;18.208;2023-03-11T06:32:48;45.28;;;24.48;;
21705;SDS011;11014;53.076;18.208;2023-03-11T06:35:54;17.00;;;11.10;;
21705;SDS011;11014;53.076;18.208;2023-03-11T06:38:34;34.95;;;22.15;;
21705;SDS011;11014;53.076;18.208;2023-03-11T06:41:57;26.30;;;16.35;;
21705;SDS011;11014;53.076;18.208;2023-03-11T06:44:37;26.83;;;14.45;;
21705;SDS011;11014;53.076;18.208;2023-03-11T06:47:17;17.77;;;11.48;;
21705;SDS011;11014;53.076;18.208;2023-03-11T06:49:46;48.60;;;21.33;;
21705;SDS011;11014;53.076;18.208;2023-03-11T06:52:18;13.20;;;8.95;;
21705;SDS011;11014;53.076;18.208;2023-03-11T06:54:48;28.20;;;13.32;;
21705;SDS011;11014;53.076;18.208;2023-03-11T06:57:19;52.38;;;26.90;;
21705;SDS011;11014;53.076;18.208;2023-03-11T06:59:51;17.15;;;10.05;;
21705;SDS011;11014;53.076;18.208;2023-03-11T07:02:21;14.35;;;8.73;;
21705;SDS011;11014;53.076;18.208;2023-03-11T07:04:51;21.33;;;12.90;;
21705;SDS011;11014;53.076;18.208;2023-03-11T07:07:23;16.42;;;10.80;;
21705;SDS011;11014;53.076;18.208;2023-03-11T07:09:55;21.23;;;11.05;;
21705;SDS011;11014;53.076;18.208;2023-03-11T07:12:30;12.05;;;6.05;;
21705;SDS011;11014;53.076;18.208;2023-03-11T07:15:00;12.32;;;7.93;;
21705;SDS011;11014;53.076;18.208;2023-03-11T07:17:32;11.35;;;7.32;;
21705;SDS011;11014;53.076;18.208;2023-03-11T07:20:02;10.57;;;7.07;;
21705;SDS011;11014;53.076;18.208;2023-03-11T07:22:48;10.05;;;6.70;;
21705;SDS011;11014;53.076;18.208;2023-03-11T07:25:17;33.05;;;16.38;;
21705;SDS011;11014;53.076;18.208;2023-03-11T07:27:46;27.55;;;10.98;;
21705;SDS011;11014;53.076;18.208;2023-03-11T07:30:17;14.30;;;7.00;;
21705;SDS011;11014;53.076;18.208;2023-03-11T07:32:46;9.27;;;5.80;;
21705;SDS011;11014;53.076;18.208;2023-03-11T07:35:15;10.30;;;6.07;;
21705;SDS011;11014;53.076;18.208;2023-03-11T07:37:44;22.50;;;9.15;;
21705;SDS011;11014;53.076;18.208;2023-03-11T07:40:13;16.05;;;9.40;;
21705;SDS011;11014;53.076;18.208;2023-03-11T07:42:41;8.70;;;5.32;;
21705;SDS011;11014;53.076;18.208;2023-03-11T07:45:11;10.02;;;7.10;;
21705;SDS011;11014;53.076;18.208;2023-03-11T07:47:39;10.30;;;7.25;;
21705;SDS011;11014;53.076;18.208;2023-03-11T07:50:11;8.82;;;5.72;;
21705;SDS011;11014;53.076;18.208;2023-03-11T08:05:07;5.63;;;3.92;;
21705;SDS011;11014;53.076;18.208;2023-03-11T08:07:36;8.93;;;6.00;;
21705;SDS011;11014;53.076;18.208;2023-03-11T08:10:05;12.38;;;5.93;;
21705;SDS011;11014;53.076;18.208;2023-03-11T08:12:34;9.82;;;5.90;;
21705;SDS011;11014;53.076;18.208;2023-03-11T08:15:03;6.18;;;4.88;;
21705;SDS011;11014;53.076;18.208;2023-03-11T08:17:32;10.18;;;6.43;;
21705;SDS011;11014;53.076;18.208;2023-03-11T08:20:01;7.13;;;5.93;;
21705;SDS011;11014;53.076;18.208;2023-03-11T08:22:29;9.80;;;5.63;;
21705;SDS011;11014;53.076;18.208;2023-03-11T08:24:58;11.30;;;6.32;;
21705;SDS011;11014;53.076;18.208;2023-03-11T08:27:27;8.98;;;6.72;;
21705;SDS011;11014;53.076;18.208;2023-03-11T08:29:56;9.32;;;6.95;;
21705;SDS011;11014;53.076;18.208;2023-03-11T08:32:25;9.82;;;5.72;;
21705;SDS011;11014;53.076;18.208;2023-03-11T08:35:05;8.10;;;4.57;;
21705;SDS011;11014;53.076;18.208;2023-03-11T08:37:37;11.35;;;7.38;;
21705;SDS011;11014;53.076;18.208;2023-03-11T08:40:06;8.55;;;4.65;;
21705;SDS011;11014;53.076;18.208;2023-03-11T08:42:37;14.73;;;8.50;;
21705;SDS011;11014;53.076;18.208;2023-03-11T08:48:01;12.88;;;7.70;;
21705;SDS011;11014;53.076;18.208;2023-03-11T08:50:30;8.05;;;5.18;;
21705;SDS011;11014;53.076;18.208;2023-03-11T08:53:05;13.57;;;7.93;;
21705;SDS011;11014;53.076;18.208;2023-03-11T08:55:36;9.20;;;5.95;;
21705;SDS011;11014;53.076;18.208;2023-03-11T08:58:10;8.88;;;5.25;;
21705;SDS011;11014;53.076;18.208;2023-03-11T09:00:39;5.95;;;3.65;;
21705;SDS011;11014;53.076;18.208;2023-03-11T09:03:09;8.57;;;5.55;;
21705;SDS011;11014;53.076;18.208;2023-03-11T09:05:40;8.20;;;5.22;;
21705;SDS011;11014;53.076;18.208;2023-03-11T09:08:09;6.10;;;4.57;;
21705;SDS011;11014;53.076;18.208;2023-03-11T09:10:39;7.60;;;5.18;;
21705;SDS011;11014;53.076;18.208;2023-03-11T09:13:08;6.93;;;4.57;;
21705;SDS011;11014;53.076;18.208;2023-03-11T09:15:55;12.43;;;8.95;;
21705;SDS011;11014;53.076;18.208;2023-03-11T09:24:16;12.32;;;7.03;;
21705;SDS011;11014;53.076;18.208;2023-03-11T09:30:52;10.80;;;7.15;;
21705;SDS011;11014;53.076;18.208;2023-03-11T09:44:35;8.80;;;5.75;;
21705;SDS011;11014;53.076;18.208;2023-03-11T09:51:15;7.13;;;5.28;;
21705;SDS011;11014;53.076;18.208;2023-03-11T09:54:02;6.28;;;4.28;;
21705;SDS011;11014;53.076;18.208;2023-03-11T09:56:33;11.35;;;5.13;;
21705;SDS011;11014;53.076;18.208;2023-03-11T09:59:26;12.27;;;4.97;;
21705;SDS011;11014;53.076;18.208;2023-03-11T10:02:13;6.03;;;4.22;;
21705;SDS011;11014;53.076;18.208;2023-03-11T10:07:24;10.35;;;4.13;;
21705;SDS011;11014;53.076;18.208;2023-03-11T10:10:14;4.75;;;3.05;;
21705;SDS011;11014;53.076;18.208;2023-03-11T10:12:52;4.82;;;3.28;;
21705;SDS011;11014;53.076;18.208;2023-03-11T10:27:27;8.82;;;4.93;;
21705;SDS011;11014;53.076;18.208;2023-03-11T10:35:52;3.83;;;2.85;;
21705;SDS011;11014;53.076;18.208;2023-03-11T10:38:29;7.13;;;3.90;;
21705;SDS011;11014;53.076;18.208;2023-03-11T10:41:23;7.47;;;4.13;;
21705;SDS011;11014;53.076;18.208;2023-03-11T10:49:25;9.90;;;5.35;;
21705;SDS011;11014;53.076;18.208;2023-03-11T10:51:54;10.77;;;5.47;;
21705;SDS011;11014;53.076;18.208;2023-03-11T10:57:27;7.13;;;3.53;;
21705;SDS011;11014;53.076;18.208;2023-03-11T11:00:06;5.40;;;3.45;;
21705;SDS011;11014;53.076;18.208;2023-03-11T11:02:55;5.85;;;4.45;;
21705;SDS011;11014;53.076;18.208;2023-03-11T11:05:30;5.30;;;3.20;;
21705;SDS011;11014;53.076;18.208;2023-03-11T11:10:58;7.72;;;5.05;;
21705;SDS011;11014;53.076;18.208;2023-03-11T11:13:35;9.45;;;5.93;;
21705;SDS011;11014;53.076;18.208;2023-03-11T11:19:29;7.53;;;3.80;;
21705;SDS011;11014;53.076;18.208;2023-03-11T11:22:02;6.68;;;4.25;;
21705;SDS011;11014;53.076;18.208;2023-03-11T11:28:42;6.65;;;2.65;;
21705;SDS011;11014;53.076;18.208;2023-03-11T11:31:22;4.38;;;2.13;;
21705;SDS011;11014;53.076;18.208;2023-03-11T11:33:53;3.65;;;2.33;;
21705;SDS011;11014;53.076;18.208;2023-03-11T11:36:30;7.47;;;3.95;;
21705;SDS011;11014;53.076;18.208;2023-03-11T11:39:05;3.90;;;2.85;;
21705;SDS011;11014;53.076;18.208;2023-03-11T11:41:43;5.13;;;3.20;;
21705;SDS011;11014;53.076;18.208;2023-03-11T11:44:14;10.27;;;5.63;;
21705;SDS011;11014;53.076;18.208;2023-03-11T11:46:50;3.50;;;2.42;;
21705;SDS011;11014;53.076;18.208;2023-03-11T11:49:29;8.73;;;2.78;;
21705;SDS011;11014;53.076;18.208;2023-03-11T11:52:13;3.88;;;2.92;;
21705;SDS011;11014;53.076;18.208;2023-03-11T11:54:50;6.50;;;3.28;;
21705;SDS011;11014;53.076;18.208;2023-03-11T12:00:46;8.82;;;3.95;;
21705;SDS011;11014;53.076;18.208;2023-03-11T12:18:04;4.13;;;2.28;;
21705;SDS011;11014;53.076;18.208;2023-03-11T12:36:19;2.92;;;1.80;;
21705;SDS011;11014;53.076;18.208;2023-03-11T12:42:16;6.30;;;4.00;;
21705;SDS011;11014;53.076;18.208;2023-03-11T12:45:42;8.07;;;3.70;;
21705;SDS011;11014;53.076;18.208;2023-03-11T12:48:29;5.65;;;3.50;;
21705;SDS011;11014;53.076;18.208;2023-03-11T12:51:05;5.85;;;3.03;;
21705;SDS011;11014;53.076;18.208;2023-03-11T12:53:42;9.40;;;4.20;;
21705;SDS011;11014;53.076;18.208;2023-03-11T12:58:56;6.88;;;3.38;;
21705;SDS011;11014;53.076;18.208;2023-03-11T13:08:08;6.60;;;3.03;;
21705;SDS011;11014;53.076;18.208;2023-03-11T13:11:24;5.50;;;2.33;;
21705;SDS011;11014;53.076;18.208;2023-03-11T13:17:29;9.20;;;2.70;;
21705;SDS011;11014;53.076;18.208;2023-03-11T13:20:02;4.35;;;2.58;;
21705;SDS011;11014;53.076;18.208;2023-03-11T13:22:41;6.60;;;3.50;;
21705;SDS011;11014;53.076;18.208;2023-03-11T13:28:26;4.07;;;2.28;;
21705;SDS011;11014;53.076;18.208;2023-03-11T13:37:20;3.67;;;2.17;;
21705;SDS011;11014;53.076;18.208;2023-03-11T13:40:38;6.43;;;1.27;;
21705;SDS011;11014;53.076;18.208;2023-03-11T13:43:10;5.10;;;2.22;;
21705;SDS011;11014;53.076;18.208;2023-03-11T13:45:49;2.25;;;1.35;;
21705;SDS011;11014;53.076;18.208;2023-03-11T13:51:03;5.05;;;2.58;;
21705;SDS011;11014;53.076;18.208;2023-03-11T13:53:38;4.00;;;2.03;;
21705;SDS011;11014;53.076;18.208;2023-03-11T13:57:00;4.45;;;1.55;;
21705;SDS011;11014;53.076;18.208;2023-03-11T13:59:39;4.35;;;2.13;;
21705;SDS011;11014;53.076;18.208;2023-03-11T14:02:18;5.10;;;1.85;;
21705;SDS011;11014;53.076;18.208;2023-03-11T14:04:49;4.93;;;1.95;;
21705;SDS011;11014;53.076;18.208;2023-03-11T14:17:11;4.60;;;1.77;;
21705;SDS011;11014;53.076;18.208;2023-03-11T14:20:00;4.05;;;1.40;;
21705;SDS011;11014;53.076;18.208;2023-03-11T14:22:32;1.92;;;1.27;;
21705;SDS011;11014;53.076;18.208;2023-03-11T14:25:04;5.05;;;2.13;;
21705;SDS011;11014;53.076;18.208;2023-03-11T14:27:37;5.22;;;2.63;;
21705;SDS011;11014;53.076;18.208;2023-03-11T14:30:06;5.65;;;2.97;;
21705;SDS011;11014;53.076;18.208;2023-03-11T14:32:58;5.95;;;3.13;;
21705;SDS011;11014;53.076;18.208;2023-03-11T14:35:32;3.80;;;1.73;;
21705;SDS011;11014;53.076;18.208;2023-03-11T14:38:03;2.73;;;1.97;;
21705;SDS011;11014;53.076;18.208;2023-03-11T14:40:49;1.70;;;1.52;;
21705;SDS011;11014;53.076;18.208;2023-03-11T14:43:36;3.70;;;1.95;;
21705;SDS011;11014;53.076;18.208;2023-03-11T14:46:09;5.07;;;2.38;;
21705;SDS011;11014;53.076;18.208;2023-03-11T14:49:05;2.22;;;1.80;;
21705;SDS011;11014;53.076;18.208;2023-03-11T14:54:39;3.72;;;2.28;;
21705;SDS011;11014;53.076;18.208;2023-03-11T15:00:11;3.60;;;1.95;;
21705;SDS011;11014;53.076;18.208;2023-03-11T15:03:01;6.15;;;2.70;;
21705;SDS011;11014;53.076;18.208;2023-03-11T15:05:46;3.63;;;2.17;;
21705;SDS011;11014;53.076;18.208;2023-03-11T15:08:26;3.80;;;1.98;;
21705;SDS011;11014;53.076;18.208;2023-03-11T15:11:07;4.13;;;2.40;;
21705;SDS011;11014;53.076;18.208;2023-03-11T15:14:48;4.28;;;2.10;;
21705;SDS011;11014;53.076;18.208;2023-03-11T15:26:23;1.45;;;1.10;;
21705;SDS011;11014;53.076;18.208;2023-03-11T15:29:02;3.78;;;2.45;;
21705;SDS011;11014;53.076;18.208;2023-03-11T15:31:43;4.15;;;2.38;;
21705;SDS011;11014;53.076;18.208;2023-03-11T15:39:18;5.40;;;2.30;;
21705;SDS011;11014;53.076;18.208;2023-03-11T15:42:02;7.20;;;2.60;;
21705;SDS011;11014;53.076;18.208;2023-03-11T15:47:03;6.07;;;2.55;;
21705;SDS011;11014;53.076;18.208;2023-03-11T15:49:32;4.07;;;2.17;;
21705;SDS011;11014;53.076;18.208;2023-03-11T15:52:01;3.78;;;2.08;;
21705;SDS011;11014;53.076;18.208;2023-03-11T15:54:30;7.07;;;2.50;;
21705;SDS011;11014;53.076;18.208;2023-03-11T15:56:59;4.38;;;2.25;;
21705;SDS011;11014;53.076;18.208;2023-03-11T15:59:28;3.38;;;1.98;;
21705;SDS011;11014;53.076;18.208;2023-03-11T16:01:57;6.78;;;3.10;;
21705;SDS011;11014;53.076;18.208;2023-03-11T16:04:26;6.57;;;2.58;;
21705;SDS011;11014;53.076;18.208;2023-03-11T16:06:55;6.85;;;3.65;;
21705;SDS011;11014;53.076;18.208;2023-03-11T16:09:35;5.07;;;2.30;;
21705;SDS011;11014;53.076;18.208;2023-03-11T16:12:13;4.93;;;2.72;;
21705;SDS011;11014;53.076;18.208;2023-03-11T16:14:45;4.25;;;2.65;;
21705;SDS011;11014;53.076;18.208;2023-03-11T16:17:14;4.88;;;2.17;;
21705;SDS011;11014;53.076;18.208;2023-03-11T16:19:46;1.93;;;1.50;;
21705;SDS011;11014;53.076;18.208;2023-03-11T16:22:38;7.10;;;2.40;;
21705;SDS011;11014;53.076;18.208;2023-03-11T16:25:05;7.78;;;3.80;;
21705;SDS011;11014;53.076;18.208;2023-03-11T16:27:40;3.70;;;2.28;;
21705;SDS011;11014;53.076;18.208;2023-03-11T16:30:10;4.75;;;1.92;;
21705;SDS011;11014;53.076;18.208;2023-03-11T16:32:39;3.53;;;2.65;;
21705;SDS011;11014;53.076;18.208;2023-03-11T16:35:09;7.28;;;1.88;;
21705;SDS011;11014;53.076;18.208;2023-03-11T16:37:39;5.68;;;2.85;;
21705;SDS011;11014;53.076;18.208;2023-03-11T16:40:17;4.95;;;2.92;;
21705;SDS011;11014;53.076;18.208;2023-03-11T16:43:07;8.65;;;4.10;;
21705;SDS011;11014;53.076;18.208;2023-03-11T16:45:39;7.80;;;3.63;;
21705;SDS011;11014;53.076;18.208;2023-03-11T16:48:08;7.57;;;4.32;;
21705;SDS011;11014;53.076;18.208;2023-03-11T16:50:38;8.68;;;5.07;;
21705;SDS011;11014;53.076;18.208;2023-03-11T16:53:08;12.93;;;6.55;;
21705;SDS011;11014;53.076;18.208;2023-03-11T16:55:37;12.55;;;6.20;;
21705;SDS011;11014;53.076;18.208;2023-03-11T16:58:06;12.65;;;6.30;;
21705;SDS011;11014;53.076;18.208;2023-03-11T17:00:36;11.65;;;5.40;;
21705;SDS011;11014;53.076;18.208;2023-03-11T17:03:14;16.08;;;7.03;;
21705;SDS011;11014;53.076;18.208;2023-03-11T17:06:09;8.68;;;4.55;;
21705;SDS011;11014;53.076;18.208;2023-03-11T17:08:38;9.25;;;4.75;;
21705;SDS011;11014;53.076;18.208;2023-03-11T17:11:20;12.38;;;5.22;;
21705;SDS011;11014;53.076;18.208;2023-03-11T17:13:53;11.65;;;6.10;;
21705;SDS011;11014;53.076;18.208;2023-03-11T17:16:42;14.25;;;6.25;;
21705;SDS011;11014;53.076;18.208;2023-03-11T17:19:14;15.77;;;6.80;;
21705;SDS011;11014;53.076;18.208;2023-03-11T17:21:49;19.35;;;11.63;;
21705;SDS011;11014;53.076;18.208;2023-03-11T17:24:18;14.00;;;7.93;;
21705;SDS011;11014;53.076;18.208;2023-03-11T17:26:49;13.40;;;5.93;;
21705;SDS011;11014;53.076;18.208;2023-03-11T17:29:18;15.40;;;7.18;;
21705;SDS011;11014;53.076;18.208;2023-03-11T17:31:51;18.30;;;7.85;;
21705;SDS011;11014;53.076;18.208;2023-03-11T17:34:25;14.98;;;6.47;;
21705;SDS011;11014;53.076;18.208;2023-03-11T17:36:58;10.27;;;5.38;;
21705;SDS011;11014;53.076;18.208;2023-03-11T17:39:27;10.75;;;4.97;;
21705;SDS011;11014;53.076;18.208;2023-03-11T17:45:40;13.85;;;6.90;;
21705;SDS011;11014;53.076;18.208;2023-03-11T17:49:00;6.85;;;2.60;;
21705;SDS011;11014;53.076;18.208;2023-03-11T17:52:03;7.68;;;4.47;;
21705;SDS011;11014;53.076;18.208;2023-03-11T17:55:42;11.38;;;5.40;;
21705;SDS011;11014;53.076;18.208;2023-03-11T17:59:18;10.15;;;6.05;;
21705;SDS011;11014;53.076;18.208;2023-03-11T18:01:51;13.88;;;6.95;;
21705;SDS011;11014;53.076;18.208;2023-03-11T18:04:23;8.88;;;4.20;;
21705;SDS011;11014;53.076;18.208;2023-03-11T18:06:53;3.88;;;1.75;;
21705;SDS011;11014;53.076;18.208;2023-03-11T18:09:27;3.85;;;2.00;;
21705;SDS011;11014;53.076;18.208;2023-03-11T18:12:20;5.90;;;3.03;;
21705;SDS011;11014;53.076;18.208;2023-03-11T18:15:45;14.63;;;9.27;;
21705;SDS011;11014;53.076;18.208;2023-03-11T18:18:34;7.97;;;2.50;;
21705;SDS011;11014;53.076;18.208;2023-03-11T18:21:37;4.25;;;2.47;;
21705;SDS011;11014;53.076;18.208;2023-03-11T18:25:01;6.70;;;3.28;;
21705;SDS011;11014;53.076;18.208;2023-03-11T18:40:46;6.80;;;4.10;;
21705;SDS011;11014;53.076;18.208;2023-03-11T18:43:15;20.17;;;9.55;;
21705;SDS011;11014;53.076;18.208;2023-03-11T18:46:05;14.88;;;7.15;;
21705;SDS011;11014;53.076;18.208;2023-03-11T18:48:36;7.00;;;3.40;;
21705;SDS011;11014;53.076;18.208;2023-03-11T18:51:05;6.03;;;3.58;;
21705;SDS011;11014;53.076;18.208;2023-03-11T18:53:36;6.75;;;3.85;;